San Benito, California
Current Conditions -  °F | °C
As of 3:53 PM on Saturday 25 Oct 2014 (Local Time) from KSNS Reporting Station
Clear Clear  
Wind Chill: 21°   Ceiling: Unl
Heat Index: 21°   Visibility: 10mi
Dew Point: 11°   Wind: 10mph
Humidity: 53%   Direction: 260°W
Pressure: 30.08"   Gusts: NA
Location:  36.4824°N, 120.948°W
Report Text: KSNS 252253Z AUTO 26009KT 10SM CLR 21/11 A3008 RMK AO2 SLP195 T02110111
Loading
Personal Weather Stations






























Interactive Weather Map
Tropical Storm Tracking
New forecast layout! Learn more

10-Day Weather Forecast

Advertisements
Track Severe Weather on mobile